Terminal Aerodrome Forecast
Issued by NWS Albany, NY

Home | Current Version | Previous Version | Text Only | Print | Product List | Glossary On
Versions: 1 2 3 4 5 6 7 8 9 10 11 12 13 14 15 16 17 18 19 20 21 22 23 24
000
FTUS41 KALY 200500
TAFALB
TAF
KALB 200531Z 2006/2106 31005KT P6SM BKN025
      TEMPO 2007/2011 SCT025
     FM201100 35003KT P6SM SCT025
      TEMPO 2012/2016 BKN030
     FM201700 36004KT P6SM SCT060 BKN100
     FM210100 VRB03KT P6SM SCT025 BKN100=

USA.gov is the U.S. government's official web portal to all federal, state and local government web resources and services.